sensor_id;sensor_type;location;lat;lon;timestamp;pressure;altitude;pressure_sealevel;temperature
58929;BMP180;44713;53.378;10.022;2022-12-18T00:01:40;102655.00;;;-5.60
58929;BMP180;44713;53.378;10.022;2022-12-18T00:04:07;102644.00;;;-5.70
58929;BMP180;44713;53.378;10.022;2022-12-18T00:06:34;102663.00;;;-5.70
58929;BMP180;44713;53.378;10.022;2022-12-18T00:09:00;102658.00;;;-5.70
58929;BMP180;44713;53.378;10.022;2022-12-18T00:11:28;102667.00;;;-5.70
58929;BMP180;44713;53.378;10.022;2022-12-18T00:13:56;102661.00;;;-5.80
58929;BMP180;44713;53.378;10.022;2022-12-18T00:16:23;102664.00;;;-5.80
58929;BMP180;44713;53.378;10.022;2022-12-18T00:18:51;102660.00;;;-5.80
58929;BMP180;44713;53.378;10.022;2022-12-18T00:21:17;102667.00;;;-5.80
58929;BMP180;44713;53.378;10.022;2022-12-18T00:23:44;102660.00;;;-5.80
58929;BMP180;44713;53.378;10.022;2022-12-18T00:26:12;102665.00;;;-5.80
58929;BMP180;44713;53.378;10.022;2022-12-18T00:28:40;102677.00;;;-5.90
58929;BMP180;44713;53.378;10.022;2022-12-18T00:31:09;102669.00;;;-5.80
58929;BMP180;44713;53.378;10.022;2022-12-18T00:33:35;102673.00;;;-5.90
58929;BMP180;44713;53.378;10.022;2022-12-18T00:36:02;102683.00;;;-5.80
58929;BMP180;44713;53.378;10.022;2022-12-18T00:38:27;102676.00;;;-5.80
58929;BMP180;44713;53.378;10.022;2022-12-18T00:40:52;102684.00;;;-5.90
58929;BMP180;44713;53.378;10.022;2022-12-18T00:43:18;102688.00;;;-6.00
58929;BMP180;44713;53.378;10.022;2022-12-18T00:45:43;102679.00;;;-6.00
58929;BMP180;44713;53.378;10.022;2022-12-18T00:48:09;102680.00;;;-5.90
58929;BMP180;44713;53.378;10.022;2022-12-18T00:50:34;102681.00;;;-5.90
58929;BMP180;44713;53.378;10.022;2022-12-18T00:53:00;102689.00;;;-6.00
58929;BMP180;44713;53.378;10.022;2022-12-18T00:55:25;102687.00;;;-6.00
58929;BMP180;44713;53.378;10.022;2022-12-18T00:57:51;102686.00;;;-6.00
58929;BMP180;44713;53.378;10.022;2022-12-18T01:00:17;102692.00;;;-6.00
58929;BMP180;44713;53.378;10.022;2022-12-18T01:02:43;102701.00;;;-6.10
58929;BMP180;44713;53.378;10.022;2022-12-18T01:05:10;102698.00;;;-6.10
58929;BMP180;44713;53.378;10.022;2022-12-18T01:07:36;102700.00;;;-6.10
58929;BMP180;44713;53.378;10.022;2022-12-18T01:10:03;102700.00;;;-6.20
58929;BMP180;44713;53.378;10.022;2022-12-18T01:12:29;102710.00;;;-6.20
58929;BMP180;44713;53.378;10.022;2022-12-18T01:14:54;102711.00;;;-6.20
58929;BMP180;44713;53.378;10.022;2022-12-18T01:17:21;102701.00;;;-6.20
58929;BMP180;44713;53.378;10.022;2022-12-18T01:19:46;102697.00;;;-6.20
58929;BMP180;44713;53.378;10.022;2022-12-18T01:22:11;102701.00;;;-6.20
58929;BMP180;44713;53.378;10.022;2022-12-18T01:24:37;102697.00;;;-6.20
58929;BMP180;44713;53.378;10.022;2022-12-18T01:27:02;102685.00;;;-6.10
58929;BMP180;44713;53.378;10.022;2022-12-18T01:29:27;102679.00;;;-6.20
58929;BMP180;44713;53.378;10.022;2022-12-18T01:31:55;102670.00;;;-6.10
58929;BMP180;44713;53.378;10.022;2022-12-18T01:34:22;102690.00;;;-6.10
58929;BMP180;44713;53.378;10.022;2022-12-18T01:36:48;102687.00;;;-6.00
58929;BMP180;44713;53.378;10.022;2022-12-18T01:39:14;102674.00;;;-6.00
58929;BMP180;44713;53.378;10.022;2022-12-18T01:41:41;102673.00;;;-5.90
58929;BMP180;44713;53.378;10.022;2022-12-18T01:47:14;102690.00;;;-6.00
58929;BMP180;44713;53.378;10.022;2022-12-18T01:49:40;102700.00;;;-6.00
58929;BMP180;44713;53.378;10.022;2022-12-18T01:52:05;102698.00;;;-6.00
58929;BMP180;44713;53.378;10.022;2022-12-18T01:54:31;102696.00;;;-6.10
58929;BMP180;44713;53.378;10.022;2022-12-18T01:56:56;102710.00;;;-6.10
58929;BMP180;44713;53.378;10.022;2022-12-18T01:59:22;102705.00;;;-6.10
58929;BMP180;44713;53.378;10.022;2022-12-18T02:01:47;102720.00;;;-6.00
58929;BMP180;44713;53.378;10.022;2022-12-18T02:04:25;102711.00;;;-6.10
58929;BMP180;44713;53.378;10.022;2022-12-18T02:06:56;102723.00;;;-6.10
58929;BMP180;44713;53.378;10.022;2022-12-18T02:09:28;102719.00;;;-6.10
58929;BMP180;44713;53.378;10.022;2022-12-18T02:12:15;102717.00;;;-6.00
58929;BMP180;44713;53.378;10.022;2022-12-18T02:14:53;102711.00;;;-6.00
58929;BMP180;44713;53.378;10.022;2022-12-18T02:17:22;102717.00;;;-6.00
58929;BMP180;44713;53.378;10.022;2022-12-18T02:20:13;102710.00;;;-6.10
58929;BMP180;44713;53.378;10.022;2022-12-18T02:23:06;102706.00;;;-6.10
58929;BMP180;44713;53.378;10.022;2022-12-18T02:28:30;102714.00;;;-6.10
58929;BMP180;44713;53.378;10.022;2022-12-18T02:31:06;102711.00;;;-6.10
58929;BMP180;44713;53.378;10.022;2022-12-18T02:33:34;102717.00;;;-6.10
58929;BMP180;44713;53.378;10.022;2022-12-18T02:36:01;102713.00;;;-6.20
58929;BMP180;44713;53.378;10.022;2022-12-18T02:38:29;102719.00;;;-6.20
58929;BMP180;44713;53.378;10.022;2022-12-18T02:40:59;102716.00;;;-6.20
58929;BMP180;44713;53.378;10.022;2022-12-18T02:43:25;102717.00;;;-6.10
58929;BMP180;44713;53.378;10.022;2022-12-18T02:45:57;102716.00;;;-6.20
58929;BMP180;44713;53.378;10.022;2022-12-18T02:48:34;102712.00;;;-6.20
58929;BMP180;44713;53.378;10.022;2022-12-18T02:51:11;102705.00;;;-6.20
58929;BMP180;44713;53.378;10.022;2022-12-18T02:53:53;102708.00;;;-6.30
58929;BMP180;44713;53.378;10.022;2022-12-18T02:56:35;102708.00;;;-6.30
58929;BMP180;44713;53.378;10.022;2022-12-18T02:59:11;102709.00;;;-6.30
58929;BMP180;44713;53.378;10.022;2022-12-18T03:04:18;102727.00;;;-6.40
58929;BMP180;44713;53.378;10.022;2022-12-18T03:06:51;102737.00;;;-6.40
58929;BMP180;44713;53.378;10.022;2022-12-18T03:09:32;102721.00;;;-6.40
58929;BMP180;44713;53.378;10.022;2022-12-18T03:12:07;102731.00;;;-6.40
58929;BMP180;44713;53.378;10.022;2022-12-18T03:14:56;102729.00;;;-6.50
58929;BMP180;44713;53.378;10.022;2022-12-18T03:17:25;102728.00;;;-6.40
58929;BMP180;44713;53.378;10.022;2022-12-18T03:19:53;102731.00;;;-6.50
58929;BMP180;44713;53.378;10.022;2022-12-18T03:22:23;102735.00;;;-6.50
58929;BMP180;44713;53.378;10.022;2022-12-18T03:24:52;102736.00;;;-6.70
58929;BMP180;44713;53.378;10.022;2022-12-18T03:27:20;102739.00;;;-6.70
58929;BMP180;44713;53.378;10.022;2022-12-18T03:30:11;102740.00;;;-6.70
58929;BMP180;44713;53.378;10.022;2022-12-18T03:33:05;102751.00;;;-6.70
58929;BMP180;44713;53.378;10.022;2022-12-18T03:35:35;102752.00;;;-6.70
58929;BMP180;44713;53.378;10.022;2022-12-18T03:38:03;102746.00;;;-6.80
58929;BMP180;44713;53.378;10.022;2022-12-18T03:40:43;102746.00;;;-6.90
58929;BMP180;44713;53.378;10.022;2022-12-18T03:43:35;102750.00;;;-6.90
58929;BMP180;44713;53.378;10.022;2022-12-18T03:51:54;102754.00;;;-7.00
58929;BMP180;44713;53.378;10.022;2022-12-18T03:54:23;102745.00;;;-7.00
58929;BMP180;44713;53.378;10.022;2022-12-18T03:57:02;102744.00;;;-7.10
58929;BMP180;44713;53.378;10.022;2022-12-18T03:59:30;102750.00;;;-7.10
58929;BMP180;44713;53.378;10.022;2022-12-18T04:01:57;102742.00;;;-7.00
58929;BMP180;44713;53.378;10.022;2022-12-18T04:04:25;102733.00;;;-7.00
58929;BMP180;44713;53.378;10.022;2022-12-18T04:06:53;102741.00;;;-7.00
58929;BMP180;44713;53.378;10.022;2022-12-18T04:09:19;102741.00;;;-7.00
58929;BMP180;44713;53.378;10.022;2022-12-18T04:11:46;102734.00;;;-7.00
58929;BMP180;44713;53.378;10.022;2022-12-18T04:14:14;102733.00;;;-7.10
58929;BMP180;44713;53.378;10.022;2022-12-18T04:16:40;102726.00;;;-7.10
58929;BMP180;44713;53.378;10.022;2022-12-18T04:19:09;102732.00;;;-7.00
58929;BMP180;44713;53.378;10.022;2022-12-18T04:21:38;102736.00;;;-7.00
58929;BMP180;44713;53.378;10.022;2022-12-18T04:24:04;102738.00;;;-7.00
58929;BMP180;44713;53.378;10.022;2022-12-18T04:26:32;102746.00;;;-7.00
58929;BMP180;44713;53.378;10.022;2022-12-18T04:29:10;102746.00;;;-7.10
58929;BMP180;44713;53.378;10.022;2022-12-18T04:31:36;102741.00;;;-7.00
58929;BMP180;44713;53.378;10.022;2022-12-18T04:34:02;102736.00;;;-7.10
58929;BMP180;44713;53.378;10.022;2022-12-18T04:36:30;102737.00;;;-7.00
58929;BMP180;44713;53.378;10.022;2022-12-18T04:38:55;102727.00;;;-7.00
58929;BMP180;44713;53.378;10.022;2022-12-18T04:41:21;102738.00;;;-7.00
58929;BMP180;44713;53.378;10.022;2022-12-18T04:43:48;102730.00;;;-7.00
58929;BMP180;44713;53.378;10.022;2022-12-18T04:46:13;102720.00;;;-6.90
58929;BMP180;44713;53.378;10.022;2022-12-18T04:48:39;102717.00;;;-6.80
58929;BMP180;44713;53.378;10.022;2022-12-18T04:51:05;102720.00;;;-6.80
58929;BMP180;44713;53.378;10.022;2022-12-18T04:53:31;102729.00;;;-6.70
58929;BMP180;44713;53.378;10.022;2022-12-18T04:56:09;102732.00;;;-6.70
58929;BMP180;44713;53.378;10.022;2022-12-18T04:58:35;102744.00;;;-6.70
58929;BMP180;44713;53.378;10.022;2022-12-18T05:01:01;102724.00;;;-6.60
58929;BMP180;44713;53.378;10.022;2022-12-18T05:03:28;102725.00;;;-6.60
58929;BMP180;44713;53.378;10.022;2022-12-18T05:05:54;102725.00;;;-6.50
58929;BMP180;44713;53.378;10.022;2022-12-18T05:08:19;102731.00;;;-6.50
58929;BMP180;44713;53.378;10.022;2022-12-18T05:10:44;102745.00;;;-6.40
58929;BMP180;44713;53.378;10.022;2022-12-18T05:13:10;102741.00;;;-6.40
58929;BMP180;44713;53.378;10.022;2022-12-18T05:15:36;102750.00;;;-6.40
58929;BMP180;44713;53.378;10.022;2022-12-18T05:18:02;102757.00;;;-6.40
58929;BMP180;44713;53.378;10.022;2022-12-18T05:20:28;102762.00;;;-6.30
58929;BMP180;44713;53.378;10.022;2022-12-18T05:22:53;102763.00;;;-6.30
58929;BMP180;44713;53.378;10.022;2022-12-18T05:25:20;102767.00;;;-6.40
58929;BMP180;44713;53.378;10.022;2022-12-18T05:27:46;102767.00;;;-6.40
58929;BMP180;44713;53.378;10.022;2022-12-18T05:30:12;102762.00;;;-6.40
58929;BMP180;44713;53.378;10.022;2022-12-18T05:32:37;102754.00;;;-6.40
58929;BMP180;44713;53.378;10.022;2022-12-18T05:35:04;102757.00;;;-6.40
58929;BMP180;44713;53.378;10.022;2022-12-18T05:37:30;102751.00;;;-6.40
58929;BMP180;44713;53.378;10.022;2022-12-18T05:39:55;102759.00;;;-6.40
58929;BMP180;44713;53.378;10.022;2022-12-18T05:42:21;102763.00;;;-6.30
58929;BMP180;44713;53.378;10.022;2022-12-18T05:44:46;102770.00;;;-6.30
58929;BMP180;44713;53.378;10.022;2022-12-18T05:47:11;102775.00;;;-6.30
58929;BMP180;44713;53.378;10.022;2022-12-18T05:49:37;102785.00;;;-6.30
58929;BMP180;44713;53.378;10.022;2022-12-18T05:52:02;102775.00;;;-6.30
58929;BMP180;44713;53.378;10.022;2022-12-18T05:54:28;102776.00;;;-6.40
58929;BMP180;44713;53.378;10.022;2022-12-18T05:56:53;102782.00;;;-6.50
58929;BMP180;44713;53.378;10.022;2022-12-18T05:59:19;102786.00;;;-6.60
58929;BMP180;44713;53.378;10.022;2022-12-18T06:01:45;102788.00;;;-6.70
58929;BMP180;44713;53.378;10.022;2022-12-18T06:04:10;102795.00;;;-6.70
58929;BMP180;44713;53.378;10.022;2022-12-18T06:06:35;102799.00;;;-6.80
58929;BMP180;44713;53.378;10.022;2022-12-18T06:09:02;102796.00;;;-6.90
58929;BMP180;44713;53.378;10.022;2022-12-18T06:11:34;102789.00;;;-6.90
58929;BMP180;44713;53.378;10.022;2022-12-18T06:13:59;102785.00;;;-7.00
58929;BMP180;44713;53.378;10.022;2022-12-18T06:16:26;102785.00;;;-7.00
58929;BMP180;44713;53.378;10.022;2022-12-18T06:18:51;102796.00;;;-7.00
58929;BMP180;44713;53.378;10.022;2022-12-18T06:21:16;102803.00;;;-7.10
58929;BMP180;44713;53.378;10.022;2022-12-18T06:23:42;102800.00;;;-7.20
58929;BMP180;44713;53.378;10.022;2022-12-18T06:26:09;102808.00;;;-7.20
58929;BMP180;44713;53.378;10.022;2022-12-18T06:28:35;102799.00;;;-7.20
58929;BMP180;44713;53.378;10.022;2022-12-18T06:31:02;102805.00;;;-7.20
58929;BMP180;44713;53.378;10.022;2022-12-18T06:33:28;102799.00;;;-7.20
58929;BMP180;44713;53.378;10.022;2022-12-18T06:35:54;102807.00;;;-7.30
58929;BMP180;44713;53.378;10.022;2022-12-18T06:38:24;102803.00;;;-7.30
58929;BMP180;44713;53.378;10.022;2022-12-18T06:40:49;102819.00;;;-7.30
58929;BMP180;44713;53.378;10.022;2022-12-18T06:43:14;102827.00;;;-7.40
58929;BMP180;44713;53.378;10.022;2022-12-18T06:45:40;102821.00;;;-7.40
58929;BMP180;44713;53.378;10.022;2022-12-18T06:48:05;102827.00;;;-7.40
58929;BMP180;44713;53.378;10.022;2022-12-18T06:50:30;102836.00;;;-7.40
58929;BMP180;44713;53.378;10.022;2022-12-18T06:52:56;102831.00;;;-7.50
58929;BMP180;44713;53.378;10.022;2022-12-18T06:55:21;102832.00;;;-7.40
58929;BMP180;44713;53.378;10.022;2022-12-18T06:57:46;102829.00;;;-7.40
58929;BMP180;44713;53.378;10.022;2022-12-18T07:00:12;102820.00;;;-7.30
58929;BMP180;44713;53.378;10.022;2022-12-18T07:02:38;102813.00;;;-7.30
58929;BMP180;44713;53.378;10.022;2022-12-18T07:05:04;102808.00;;;-7.20
58929;BMP180;44713;53.378;10.022;2022-12-18T07:07:30;102808.00;;;-7.10
58929;BMP180;44713;53.378;10.022;2022-12-18T07:09:55;102811.00;;;-6.90
58929;BMP180;44713;53.378;10.022;2022-12-18T07:12:20;102818.00;;;-6.90
58929;BMP180;44713;53.378;10.022;2022-12-18T07:14:46;102816.00;;;-6.80
58929;BMP180;44713;53.378;10.022;2022-12-18T07:17:11;102825.00;;;-6.80
58929;BMP180;44713;53.378;10.022;2022-12-18T07:19:36;102832.00;;;-6.80
58929;BMP180;44713;53.378;10.022;2022-12-18T07:22:02;102832.00;;;-6.80
58929;BMP180;44713;53.378;10.022;2022-12-18T07:24:27;102829.00;;;-6.80
58929;BMP180;44713;53.378;10.022;2022-12-18T07:26:53;102833.00;;;-6.80
58929;BMP180;44713;53.378;10.022;2022-12-18T07:29:18;102831.00;;;-6.90
58929;BMP180;44713;53.378;10.022;2022-12-18T07:31:44;102835.00;;;-6.90
58929;BMP180;44713;53.378;10.022;2022-12-18T07:34:11;102833.00;;;-6.90
58929;BMP180;44713;53.378;10.022;2022-12-18T07:36:37;102848.00;;;-6.90
58929;BMP180;44713;53.378;10.022;2022-12-18T07:39:02;102836.00;;;-6.90
58929;BMP180;44713;53.378;10.022;2022-12-18T07:41:28;102837.00;;;-6.90
58929;BMP180;44713;53.378;10.022;2022-12-18T07:43:53;102858.00;;;-6.80
58929;BMP180;44713;53.378;10.022;2022-12-18T07:46:18;102849.00;;;-6.80
58929;BMP180;44713;53.378;10.022;2022-12-18T07:48:44;102854.00;;;-6.80
58929;BMP180;44713;53.378;10.022;2022-12-18T07:51:09;102855.00;;;-6.70
58929;BMP180;44713;53.378;10.022;2022-12-18T07:53:35;102848.00;;;-6.60
58929;BMP180;44713;53.378;10.022;2022-12-18T07:56:03;102856.00;;;-6.70
58929;BMP180;44713;53.378;10.022;2022-12-18T07:58:29;102853.00;;;-6.60
58929;BMP180;44713;53.378;10.022;2022-12-18T08:01:03;102861.00;;;-6.50
58929;BMP180;44713;53.378;10.022;2022-12-18T08:03:29;102852.00;;;-6.50
58929;BMP180;44713;53.378;10.022;2022-12-18T08:05:58;102840.00;;;-6.40
58929;BMP180;44713;53.378;10.022;2022-12-18T08:08:24;102839.00;;;-6.40
58929;BMP180;44713;53.378;10.022;2022-12-18T08:10:49;102837.00;;;-6.40
58929;BMP180;44713;53.378;10.022;2022-12-18T08:13:15;102836.00;;;-6.40
58929;BMP180;44713;53.378;10.022;2022-12-18T08:15:41;102830.00;;;-6.30
58929;BMP180;44713;53.378;10.022;2022-12-18T08:18:07;102830.00;;;-6.30
58929;BMP180;44713;53.378;10.022;2022-12-18T08:20:32;102820.00;;;-6.20
58929;BMP180;44713;53.378;10.022;2022-12-18T08:22:57;102822.00;;;-6.10
58929;BMP180;44713;53.378;10.022;2022-12-18T08:25:23;102818.00;;;-6.00
58929;BMP180;44713;53.378;10.022;2022-12-18T08:27:48;102816.00;;;-6.10
58929;BMP180;44713;53.378;10.022;2022-12-18T08:30:14;102820.00;;;-6.00
58929;BMP180;44713;53.378;10.022;2022-12-18T08:32:39;102821.00;;;-5.90
58929;BMP180;44713;53.378;10.022;2022-12-18T08:35:05;102812.00;;;-5.90
58929;BMP180;44713;53.378;10.022;2022-12-18T08:37:30;102824.00;;;-5.80
58929;BMP180;44713;53.378;10.022;2022-12-18T08:39:56;102824.00;;;-5.80
58929;BMP180;44713;53.378;10.022;2022-12-18T08:42:21;102805.00;;;-5.90
58929;BMP180;44713;53.378;10.022;2022-12-18T08:45:06;102815.00;;;-5.80
58929;BMP180;44713;53.378;10.022;2022-12-18T08:47:31;102809.00;;;-5.80
58929;BMP180;44713;53.378;10.022;2022-12-18T08:49:57;102813.00;;;-5.70
58929;BMP180;44713;53.378;10.022;2022-12-18T08:52:22;102815.00;;;-5.70
58929;BMP180;44713;53.378;10.022;2022-12-18T08:54:48;102817.00;;;-5.70
58929;BMP180;44713;53.378;10.022;2022-12-18T08:57:13;102824.00;;;-5.70
58929;BMP180;44713;53.378;10.022;2022-12-18T08:59:38;102835.00;;;-5.50
58929;BMP180;44713;53.378;10.022;2022-12-18T09:02:04;102816.00;;;-5.50
58929;BMP180;44713;53.378;10.022;2022-12-18T09:04:29;102827.00;;;-5.50
58929;BMP180;44713;53.378;10.022;2022-12-18T09:06:54;102827.00;;;-5.40
58929;BMP180;44713;53.378;10.022;2022-12-18T09:09:20;102835.00;;;-5.40
58929;BMP180;44713;53.378;10.022;2022-12-18T09:11:45;102828.00;;;-5.30
58929;BMP180;44713;53.378;10.022;2022-12-18T09:14:10;102829.00;;;-5.30
58929;BMP180;44713;53.378;10.022;2022-12-18T09:16:36;102823.00;;;-5.20
58929;BMP180;44713;53.378;10.022;2022-12-18T09:19:02;102821.00;;;-5.20
58929;BMP180;44713;53.378;10.022;2022-12-18T09:21:31;102815.00;;;-5.20
58929;BMP180;44713;53.378;10.022;2022-12-18T09:23:56;102817.00;;;-5.00
58929;BMP180;44713;53.378;10.022;2022-12-18T09:26:24;102807.00;;;-5.00
58929;BMP180;44713;53.378;10.022;2022-12-18T09:28:50;102789.00;;;-4.90
58929;BMP180;44713;53.378;10.022;2022-12-18T09:31:17;102809.00;;;-4.90
58929;BMP180;44713;53.378;10.022;2022-12-18T09:33:43;102808.00;;;-4.80
58929;BMP180;44713;53.378;10.022;2022-12-18T09:36:10;102806.00;;;-4.70
58929;BMP180;44713;53.378;10.022;2022-12-18T09:38:36;102807.00;;;-4.70
58929;BMP180;44713;53.378;10.022;2022-12-18T09:41:06;102808.00;;;-4.60
58929;BMP180;44713;53.378;10.022;2022-12-18T09:43:44;102816.00;;;-4.60
58929;BMP180;44713;53.378;10.022;2022-12-18T09:46:16;102813.00;;;-4.50
58929;BMP180;44713;53.378;10.022;2022-12-18T09:48:45;102817.00;;;-4.50
58929;BMP180;44713;53.378;10.022;2022-12-18T09:51:33;102814.00;;;-4.40
58929;BMP180;44713;53.378;10.022;2022-12-18T09:54:07;102818.00;;;-4.20
58929;BMP180;44713;53.378;10.022;2022-12-18T09:56:40;102807.00;;;-4.20
58929;BMP180;44713;53.378;10.022;2022-12-18T09:59:25;102816.00;;;-4.10
58929;BMP180;44713;53.378;10.022;2022-12-18T10:01:51;102809.00;;;-4.00
58929;BMP180;44713;53.378;10.022;2022-12-18T10:04:18;102812.00;;;-3.90
58929;BMP180;44713;53.378;10.022;2022-12-18T10:07:37;102822.00;;;-3.80
58929;BMP180;44713;53.378;10.022;2022-12-18T10:10:04;102823.00;;;-3.70
58929;BMP180;44713;53.378;10.022;2022-12-18T10:12:44;102818.00;;;-3.60
58929;BMP180;44713;53.378;10.022;2022-12-18T10:15:47;102822.00;;;-3.50
58929;BMP180;44713;53.378;10.022;2022-12-18T10:19:06;102818.00;;;-3.30
58929;BMP180;44713;53.378;10.022;2022-12-18T10:21:58;102820.00;;;-3.20
58929;BMP180;44713;53.378;10.022;2022-12-18T10:24:40;102814.00;;;-3.10
58929;BMP180;44713;53.378;10.022;2022-12-18T10:27:15;102816.00;;;-3.00
58929;BMP180;44713;53.378;10.022;2022-12-18T10:29:44;102809.00;;;-2.90
58929;BMP180;44713;53.378;10.022;2022-12-18T10:32:28;102808.00;;;-2.80
58929;BMP180;44713;53.378;10.022;2022-12-18T10:34:56;102815.00;;;-2.60
58929;BMP180;44713;53.378;10.022;2022-12-18T10:37:25;102827.00;;;-2.50
58929;BMP180;44713;53.378;10.022;2022-12-18T10:40:12;102840.00;;;-2.60
58929;BMP180;44713;53.378;10.022;2022-12-18T10:42:38;102837.00;;;-2.50
58929;BMP180;44713;53.378;10.022;2022-12-18T10:45:10;102821.00;;;-2.40
58929;BMP180;44713;53.378;10.022;2022-12-18T10:47:44;102812.00;;;-2.30
58929;BMP180;44713;53.378;10.022;2022-12-18T10:50:18;102821.00;;;-2.20
58929;BMP180;44713;53.378;10.022;2022-12-18T10:52:55;102815.00;;;-2.30
58929;BMP180;44713;53.378;10.022;2022-12-18T10:55:22;102804.00;;;-2.30
58929;BMP180;44713;53.378;10.022;2022-12-18T10:57:47;102800.00;;;-2.30
58929;BMP180;44713;53.378;10.022;2022-12-18T11:00:23;102791.00;;;-2.20
58929;BMP180;44713;53.378;10.022;2022-12-18T11:02:49;102777.00;;;-2.10
58929;BMP180;44713;53.378;10.022;2022-12-18T11:05:30;102782.00;;;-2.10
58929;BMP180;44713;53.378;10.022;2022-12-18T11:07:56;102784.00;;;-2.00
58929;BMP180;44713;53.378;10.022;2022-12-18T11:10:29;102795.00;;;-1.80
58929;BMP180;44713;53.378;10.022;2022-12-18T11:12:56;102800.00;;;-1.70
58929;BMP180;44713;53.378;10.022;2022-12-18T11:15:33;102786.00;;;-1.60
58929;BMP180;44713;53.378;10.022;2022-12-18T11:17:58;102774.00;;;-1.60
58929;BMP180;44713;53.378;10.022;2022-12-18T11:20:36;102785.00;;;-1.50
58929;BMP180;44713;53.378;10.022;2022-12-18T11:23:11;102782.00;;;-1.50
58929;BMP180;44713;53.378;10.022;2022-12-18T11:25:38;102782.00;;;-1.40
58929;BMP180;44713;53.378;10.022;2022-12-18T11:28:06;102782.00;;;-1.30
58929;BMP180;44713;53.378;10.022;2022-12-18T11:31:18;102772.00;;;-1.10
58929;BMP180;44713;53.378;10.022;2022-12-18T11:34:00;102762.00;;;-1.00
58929;BMP180;44713;53.378;10.022;2022-12-18T11:36:31;102751.00;;;-1.00
58929;BMP180;44713;53.378;10.022;2022-12-18T11:38:59;102754.00;;;-1.00
58929;BMP180;44713;53.378;10.022;2022-12-18T11:41:56;102762.00;;;-0.90
58929;BMP180;44713;53.378;10.022;2022-12-18T11:44:54;102752.00;;;-0.80
58929;BMP180;44713;53.378;10.022;2022-12-18T11:47:39;102759.00;;;-0.70
58929;BMP180;44713;53.378;10.022;2022-12-18T11:50:17;102749.00;;;-0.60
58929;BMP180;44713;53.378;10.022;2022-12-18T11:52:44;102754.00;;;-0.70
58929;BMP180;44713;53.378;10.022;2022-12-18T11:55:15;102757.00;;;-0.60
58929;BMP180;44713;53.378;10.022;2022-12-18T12:00:24;102740.00;;;-0.50
58929;BMP180;44713;53.378;10.022;2022-12-18T12:06:03;102732.00;;;-0.50
58929;BMP180;44713;53.378;10.022;2022-12-18T12:13:53;102720.00;;;-0.60
58929;BMP180;44713;53.378;10.022;2022-12-18T12:16:50;102711.00;;;-0.50
58929;BMP180;44713;53.378;10.022;2022-12-18T12:19:50;102717.00;;;-0.60
58929;BMP180;44713;53.378;10.022;2022-12-18T12:22:40;102713.00;;;-0.60
58929;BMP180;44713;53.378;10.022;2022-12-18T12:28:15;102700.00;;;-0.50
58929;BMP180;44713;53.378;10.022;2022-12-18T12:33:43;102688.00;;;-0.70
58929;BMP180;44713;53.378;10.022;2022-12-18T12:36:29;102683.00;;;-0.60
58929;BMP180;44713;53.378;10.022;2022-12-18T12:38:57;102674.00;;;-0.60
58929;BMP180;44713;53.378;10.022;2022-12-18T12:41:27;102669.00;;;-0.70
58929;BMP180;44713;53.378;10.022;2022-12-18T12:44:19;102655.00;;;-0.60
58929;BMP180;44713;53.378;10.022;2022-12-18T12:46:48;102651.00;;;-0.70
58929;BMP180;44713;53.378;10.022;2022-12-18T12:49:23;102647.00;;;-0.70
58929;BMP180;44713;53.378;10.022;2022-12-18T12:52:00;102657.00;;;-0.60
58929;BMP180;44713;53.378;10.022;2022-12-18T12:54:29;102653.00;;;-0.60
58929;BMP180;44713;53.378;10.022;2022-12-18T12:57:02;102655.00;;;-0.70
58929;BMP180;44713;53.378;10.022;2022-12-18T13:05:14;102630.00;;;-0.70
58929;BMP180;44713;53.378;10.022;2022-12-18T13:08:03;102630.00;;;-0.70
58929;BMP180;44713;53.378;10.022;2022-12-18T13:10:41;102643.00;;;-0.70
58929;BMP180;44713;53.378;10.022;2022-12-18T13:15:39;102643.00;;;-0.70
58929;BMP180;44713;53.378;10.022;2022-12-18T13:20:51;102654.00;;;-0.80
58929;BMP180;44713;53.378;10.022;2022-12-18T13:23:35;102657.00;;;-1.00
58929;BMP180;44713;53.378;10.022;2022-12-18T13:31:00;102645.00;;;-1.20
58929;BMP180;44713;53.378;10.022;2022-12-18T13:41:36;102630.00;;;-1.10
58929;BMP180;44713;53.378;10.022;2022-12-18T13:44:26;102634.00;;;-1.20
58929;BMP180;44713;53.378;10.022;2022-12-18T13:46:54;102645.00;;;-1.20
58929;BMP180;44713;53.378;10.022;2022-12-18T13:49:23;102651.00;;;-1.30
58929;BMP180;44713;53.378;10.022;2022-12-18T13:51:55;102653.00;;;-1.40
58929;BMP180;44713;53.378;10.022;2022-12-18T13:54:39;102654.00;;;-1.40
58929;BMP180;44713;53.378;10.022;2022-12-18T13:57:22;102657.00;;;-1.50
58929;BMP180;44713;53.378;10.022;2022-12-18T13:59:50;102644.00;;;-1.50
58929;BMP180;44713;53.378;10.022;2022-12-18T14:02:18;102645.00;;;-1.60
58929;BMP180;44713;53.378;10.022;2022-12-18T14:04:46;102645.00;;;-1.70
58929;BMP180;44713;53.378;10.022;2022-12-18T14:07:15;102650.00;;;-1.80
58929;BMP180;44713;53.378;10.022;2022-12-18T14:09:43;102644.00;;;-1.80
58929;BMP180;44713;53.378;10.022;2022-12-18T14:12:31;102647.00;;;-1.70
58929;BMP180;44713;53.378;10.022;2022-12-18T14:15:43;102651.00;;;-1.80
58929;BMP180;44713;53.378;10.022;2022-12-18T14:18:24;102651.00;;;-1.90
58929;BMP180;44713;53.378;10.022;2022-12-18T14:20:52;102644.00;;;-2.00
58929;BMP180;44713;53.378;10.022;2022-12-18T14:25:57;102645.00;;;-2.00
58929;BMP180;44713;53.378;10.022;2022-12-18T14:28:23;102648.00;;;-2.00
58929;BMP180;44713;53.378;10.022;2022-12-18T14:30:49;102634.00;;;-2.10
58929;BMP180;44713;53.378;10.022;2022-12-18T14:33:20;102631.00;;;-2.10
58929;BMP180;44713;53.378;10.022;2022-12-18T14:38:39;102642.00;;;-2.20
58929;BMP180;44713;53.378;10.022;2022-12-18T14:41:18;102632.00;;;-2.30
58929;BMP180;44713;53.378;10.022;2022-12-18T14:43:46;102632.00;;;-2.30
58929;BMP180;44713;53.378;10.022;2022-12-18T14:46:34;102632.00;;;-2.30
58929;BMP180;44713;53.378;10.022;2022-12-18T14:49:15;102628.00;;;-2.30
58929;BMP180;44713;53.378;10.022;2022-12-18T14:51:48;102625.00;;;-2.30
58929;BMP180;44713;53.378;10.022;2022-12-18T14:54:16;102624.00;;;-2.40
58929;BMP180;44713;53.378;10.022;2022-12-18T14:56:47;102624.00;;;-2.40
58929;BMP180;44713;53.378;10.022;2022-12-18T14:59:16;102610.00;;;-2.40
58929;BMP180;44713;53.378;10.022;2022-12-18T15:01:51;102597.00;;;-2.50
58929;BMP180;44713;53.378;10.022;2022-12-18T15:04:28;102591.00;;;-2.50